createdAt,value
2023-03-08T00:01:25.480Z,99057.38
2023-03-08T00:03:58.294Z,99084.28
2023-03-08T00:06:29.765Z,99072.97
2023-03-08T00:09:01.911Z,99068.63
2023-03-08T00:11:33.209Z,99082.53
2023-03-08T00:14:04.487Z,99085.13
2023-03-08T00:16:35.771Z,99089.44
2023-03-08T00:19:07.102Z,99088.56
2023-03-08T00:21:38.420Z,99093.75
2023-03-08T00:24:11.809Z,99076.34
2023-03-08T00:26:43.734Z,99105.88
2023-03-08T00:29:15.091Z,99112.81
2023-03-08T00:31:46.500Z,99080.69
2023-03-08T00:34:18.231Z,99095.47
2023-03-08T00:36:49.517Z,99111.09
2023-03-08T00:39:20.791Z,99116.31
2023-03-08T00:41:52.151Z,99126.69
2023-03-08T00:44:23.524Z,99119.75
2023-03-08T00:46:55.061Z,99113.66
2023-03-08T00:49:26.448Z,99124.91
2023-03-08T00:51:57.723Z,99126.69
2023-03-08T00:54:32.406Z,99121.47
2023-03-08T00:57:03.875Z,99106.72
2023-03-08T00:59:35.229Z,99095.41
2023-03-08T01:02:06.816Z,99113.69
2023-03-08T01:04:38.168Z,99118.00
2023-03-08T01:07:09.435Z,99120.59
2023-03-08T01:09:40.702Z,99121.47
2023-03-08T01:12:11.965Z,99113.66
2023-03-08T01:14:43.476Z,99111.13
2023-03-08T01:17:14.788Z,99109.41
2023-03-08T01:19:46.053Z,99105.13
2023-03-08T01:22:17.316Z,99086.03
2023-03-08T01:24:49.269Z,99106.06
2023-03-08T01:27:20.538Z,99098.28
2023-03-08T01:29:51.829Z,99102.66
2023-03-08T01:32:23.240Z,99072.28
2023-03-08T01:34:55.446Z,99073.13
2023-03-08T01:37:26.716Z,99071.41
2023-03-08T01:39:58.307Z,99080.06
2023-03-08T01:42:29.811Z,99098.31
2023-03-08T01:45:03.651Z,99104.41
2023-03-08T01:47:36.075Z,99090.53
2023-03-08T01:50:12.791Z,99100.09
2023-03-08T01:52:51.574Z,99090.56
2023-03-08T01:55:22.940Z,99090.56
2023-03-08T01:57:55.987Z,99082.75
2023-03-08T02:00:27.632Z,99084.47
2023-03-08T02:03:06.188Z,99081.88
2023-03-08T02:05:41.890Z,99077.50
2023-03-08T02:08:13.193Z,99078.34
2023-03-08T02:10:44.707Z,99080.06
2023-03-08T02:13:17.324Z,99073.97
2023-03-08T02:15:51.721Z,99057.47
2023-03-08T02:18:23.265Z,99082.66
2023-03-08T02:20:54.576Z,99063.53
2023-03-08T02:23:26.068Z,99066.16
2023-03-08T02:26:02.458Z,99067.00
2023-03-08T02:28:34.220Z,99078.28
2023-03-08T02:31:06.254Z,99085.22
2023-03-08T02:33:37.656Z,99064.38
2023-03-08T02:36:09.697Z,99081.72
2023-03-08T02:38:41.167Z,99062.59
2023-03-08T02:41:12.430Z,99085.19
2023-03-08T02:43:43.744Z,99087.78
2023-03-08T02:46:15.163Z,99085.16
2023-03-08T02:48:46.532Z,99077.34
2023-03-08T02:51:17.805Z,99086.88
2023-03-08T02:53:49.181Z,99081.66
2023-03-08T02:56:20.763Z,99083.38
2023-03-08T02:58:52.037Z,99092.06
2023-03-08T03:01:23.758Z,99081.63
2023-03-08T03:03:55.361Z,99085.09
2023-03-08T03:06:26.693Z,99074.69
2023-03-08T03:08:58.074Z,99065.13
2023-03-08T03:11:29.328Z,99088.56
2023-03-08T03:14:01.081Z,99086.81
2023-03-08T03:16:32.513Z,99088.56
2023-03-08T03:19:04.228Z,99093.75
2023-03-08T03:21:35.643Z,99072.03
2023-03-08T03:24:07.475Z,99088.53
2023-03-08T03:26:38.999Z,99085.91
2023-03-08T03:29:10.317Z,99087.66
2023-03-08T03:31:41.772Z,99076.38
2023-03-08T03:34:13.039Z,99083.28
2023-03-08T03:36:44.313Z,99090.25
2023-03-08T03:39:15.754Z,99078.06
2023-03-08T03:41:47.010Z,99083.25
2023-03-08T03:44:18.283Z,99091.94
2023-03-08T03:46:49.693Z,99078.00
2023-03-08T03:49:21.088Z,99087.56
2023-03-08T03:51:52.366Z,99086.69
2023-03-08T03:54:23.739Z,99065.88
2023-03-08T03:56:58.059Z,99092.78
2023-03-08T03:59:29.339Z,99085.81
2023-03-08T04:02:00.631Z,99085.81
2023-03-08T04:04:31.905Z,99089.28
2023-03-08T04:07:03.288Z,99068.47
2023-03-08T04:09:35.760Z,99074.53
2023-03-08T04:12:07.268Z,99088.41
2023-03-08T04:14:40.230Z,99091.91
2023-03-08T04:17:11.510Z,99097.13
2023-03-08T04:19:42.832Z,99087.56
2023-03-08T04:22:14.096Z,99087.56
2023-03-08T04:24:45.389Z,99084.94
2023-03-08T04:27:16.660Z,99088.44
2023-03-08T04:29:47.989Z,99091.94
2023-03-08T04:32:19.299Z,99074.59
2023-03-08T04:34:50.640Z,99088.50
2023-03-08T04:37:22.024Z,99093.75
2023-03-08T04:39:53.296Z,99090.28
2023-03-08T04:42:24.667Z,99087.69
2023-03-08T04:44:55.948Z,99070.28
2023-03-08T04:47:27.215Z,99083.31
2023-03-08T04:49:58.556Z,99065.06
2023-03-08T04:52:29.851Z,99079.81
2023-03-08T04:55:01.245Z,99086.78
2023-03-08T04:57:32.532Z,99087.66
2023-03-08T05:00:05.793Z,99081.53
2023-03-08T05:02:37.129Z,99086.75
2023-03-08T05:05:08.665Z,99090.22
2023-03-08T05:07:40.062Z,99090.22
2023-03-08T05:10:11.605Z,99089.34
2023-03-08T05:12:42.963Z,99066.75
2023-03-08T05:15:14.338Z,99081.50
2023-03-08T05:17:45.692Z,99086.72
2023-03-08T05:20:17.921Z,99084.13
2023-03-08T05:22:58.531Z,99093.69
2023-03-08T05:25:31.353Z,99079.78
2023-03-08T05:28:02.725Z,99089.28
2023-03-08T05:30:33.994Z,99084.06
2023-03-08T05:33:05.300Z,99083.13
2023-03-08T05:35:36.636Z,99068.44
2023-03-08T05:38:08.110Z,99032.00
2023-03-08T05:40:39.443Z,99087.50
2023-03-08T05:43:10.709Z,99071.00
2023-03-08T05:45:42.244Z,99090.09
2023-03-08T05:48:13.550Z,99074.44
2023-03-08T05:50:44.809Z,99084.84
2023-03-08T05:53:16.084Z,99078.75
2023-03-08T05:55:47.589Z,99072.69
2023-03-08T05:58:18.927Z,99078.75
2023-03-08T06:00:50.193Z,99075.28
2023-03-08T06:03:21.521Z,99069.19
2023-03-08T06:05:52.820Z,99054.50
2023-03-08T06:08:24.088Z,99015.41
2023-03-08T06:10:55.359Z,99071.75
2023-03-08T06:13:26.638Z,99057.88
2023-03-08T06:15:59.799Z,99063.03
2023-03-08T06:18:31.897Z,99057.81
2023-03-08T06:21:12.259Z,99046.53
2023-03-08T06:23:45.620Z,99060.38
2023-03-08T06:26:17.032Z,99056.88
2023-03-08T06:28:48.292Z,99065.56
2023-03-08T06:31:20.645Z,99076.00
2023-03-08T06:33:51.923Z,99065.56
2023-03-08T06:36:23.419Z,99078.63
2023-03-08T06:38:54.713Z,99072.53
2023-03-08T06:41:26.022Z,99044.78
2023-03-08T06:43:57.816Z,99072.53
2023-03-08T06:46:29.272Z,99073.38
2023-03-08T06:49:01.285Z,99051.66
2023-03-08T06:51:32.568Z,99067.22
2023-03-08T06:54:04.496Z,99063.72
2023-03-08T06:56:35.785Z,99066.31
2023-03-08T06:59:07.042Z,99068.03
2023-03-08T07:01:38.469Z,99063.63
2023-03-08T07:04:09.831Z,99048.00
2023-03-08T07:06:41.142Z,99058.34
2023-03-08T07:09:13.670Z,99041.78
2023-03-08T07:11:45.023Z,99058.16
2023-03-08T07:14:16.382Z,99047.72
2023-03-08T07:16:48.520Z,99056.34
2023-03-08T07:19:20.052Z,99048.53
2023-03-08T07:21:51.337Z,99066.75
2023-03-08T07:24:22.596Z,99064.13
2023-03-08T07:26:53.852Z,99061.44
2023-03-08T07:29:25.134Z,99039.75
2023-03-08T07:31:56.487Z,99048.38
2023-03-08T07:34:27.844Z,99046.56
2023-03-08T07:36:59.105Z,98995.38
2023-03-08T07:39:30.471Z,99029.06
2023-03-08T07:42:01.805Z,99046.28
2023-03-08T07:44:33.127Z,99028.94
2023-03-08T07:47:08.263Z,99034.03
2023-03-08T07:49:39.552Z,99045.22
2023-03-08T07:52:10.928Z,99052.09
2023-03-08T07:54:43.738Z,99047.69
2023-03-08T07:57:15.588Z,99047.59
2023-03-08T07:59:46.861Z,99023.22
2023-03-08T08:02:18.228Z,99056.97
2023-03-08T08:04:50.647Z,99047.41
2023-03-08T08:07:22.039Z,99038.72
2023-03-08T08:09:54.111Z,99056.00
2023-03-08T08:12:25.391Z,99059.44
2023-03-08T08:14:56.706Z,99038.63
2023-03-08T08:17:27.972Z,99044.66
2023-03-08T08:19:59.657Z,99065.28
2023-03-08T08:22:30.929Z,99063.50
2023-03-08T08:25:04.859Z,99065.16
2023-03-08T08:27:36.398Z,99056.47
2023-03-08T08:30:08.381Z,99067.63
2023-03-08T08:32:40.032Z,99057.16
2023-03-08T08:35:11.406Z,99058.75
2023-03-08T08:37:42.713Z,99063.00
2023-03-08T08:40:14.117Z,99073.34
2023-03-08T08:42:46.501Z,99054.97
2023-03-08T08:45:17.879Z,99076.56
2023-03-08T08:47:49.137Z,99064.06
2023-03-08T08:50:20.391Z,99048.13
2023-03-08T08:52:51.693Z,99057.22
2023-03-08T08:55:23.031Z,99063.88
2023-03-08T08:57:54.289Z,99065.47
2023-03-08T09:00:26.174Z,99042.81
2023-03-08T09:02:57.436Z,99038.00
2023-03-08T09:05:29.088Z,99047.91
2023-03-08T09:08:01.241Z,99028.75
2023-03-08T09:10:34.636Z,99049.44
2023-03-08T09:13:06.647Z,99044.19
2023-03-08T09:15:37.955Z,99023.16
2023-03-08T09:18:09.305Z,99025.31
2023-03-08T09:20:40.698Z,99041.28
2023-03-08T09:23:11.979Z,99042.25
2023-03-08T09:25:43.352Z,99022.34
2023-03-08T09:28:14.749Z,99044.03
2023-03-08T09:30:46.025Z,99020.69
2023-03-08T09:33:17.671Z,99037.09
2023-03-08T09:35:59.478Z,99042.31
2023-03-08T09:38:30.817Z,99031.72
2023-03-08T09:41:05.050Z,99044.50
2023-03-08T09:44:03.503Z,99041.66
2023-03-08T09:46:40.807Z,99022.63
2023-03-08T09:49:19.248Z,99042.44
2023-03-08T09:51:57.279Z,99041.53
2023-03-08T09:54:29.216Z,99019.56
2023-03-08T09:57:06.690Z,99026.09
2023-03-08T09:59:45.416Z,99012.00
2023-03-08T10:02:31.883Z,99025.53
2023-03-08T10:05:21.638Z,99017.66
2023-03-08T10:08:02.797Z,99015.22
2023-03-08T10:10:47.484Z,99011.00
2023-03-08T10:13:36.065Z,98999.69
2023-03-08T10:16:24.987Z,99004.13
2023-03-08T10:19:02.506Z,99007.53
2023-03-08T10:21:37.953Z,98981.56
2023-03-08T10:24:26.537Z,98996.31
2023-03-08T10:27:15.097Z,98995.44
2023-03-08T10:29:58.395Z,98992.44
2023-03-08T10:32:29.770Z,98991.41
2023-03-08T10:35:04.781Z,98980.44
2023-03-08T10:37:36.451Z,98982.81
2023-03-08T10:40:10.923Z,98978.00
2023-03-08T10:43:05.992Z,98958.16
2023-03-08T10:45:37.341Z,98984.00
2023-03-08T10:48:19.990Z,98951.84
2023-03-08T10:51:00.035Z,98982.00
2023-03-08T10:53:32.641Z,98985.50
2023-03-08T10:56:04.273Z,98951.78
2023-03-08T10:58:39.392Z,98973.25
2023-03-08T11:01:28.928Z,98968.84
2023-03-08T11:04:16.865Z,98964.47
2023-03-08T11:06:48.493Z,98960.84
2023-03-08T11:09:28.413Z,98961.31
2023-03-08T11:12:00.599Z,98892.81
2023-03-08T11:14:31.947Z,98944.59
2023-03-08T11:17:12.092Z,98958.94
2023-03-08T11:19:49.355Z,98944.94
2023-03-08T11:22:38.324Z,98957.47
2023-03-08T11:25:09.554Z,98958.97
2023-03-08T11:28:05.833Z,98955.13
2023-03-08T11:30:51.126Z,98945.22
2023-03-08T11:33:28.718Z,98949.53
2023-03-08T11:36:13.458Z,98927.09
2023-03-08T11:38:53.009Z,98943.75
2023-03-08T11:41:42.432Z,98908.94
2023-03-08T11:44:33.471Z,98938.38
2023-03-08T11:47:26.239Z,98935.72
2023-03-08T11:50:20.918Z,98928.06
2023-03-08T11:53:26.185Z,98933.47
2023-03-08T11:56:09.586Z,98933.47
2023-03-08T11:59:09.032Z,98915.16
2023-03-08T12:02:08.067Z,98923.84
2023-03-08T12:04:51.981Z,98919.41
2023-03-08T12:07:35.403Z,98912.19
2023-03-08T12:10:12.832Z,98909.88
2023-03-08T12:12:51.186Z,98859.66
2023-03-08T12:15:35.522Z,98900.59
2023-03-08T12:18:21.049Z,98891.63
2023-03-08T12:21:02.840Z,98909.44
2023-03-08T12:23:43.353Z,98908.06
2023-03-08T12:26:21.919Z,98897.28
2023-03-08T12:28:59.900Z,98901.81
2023-03-08T12:31:40.779Z,98880.06
2023-03-08T12:34:24.957Z,98895.03
2023-03-08T12:36:56.663Z,98889.09
2023-03-08T12:39:34.007Z,98888.38
2023-03-08T12:42:08.461Z,98891.53
2023-03-08T12:44:40.417Z,98891.22
2023-03-08T12:47:11.662Z,98892.00
2023-03-08T12:49:46.974Z,98883.31
2023-03-08T12:52:18.349Z,98883.19
2023-03-08T12:55:01.083Z,98882.50
2023-03-08T12:57:45.971Z,98883.13
2023-03-08T13:00:20.434Z,98883.13
2023-03-08T13:03:06.400Z,98867.34
2023-03-08T13:05:40.004Z,98890.44
2023-03-08T13:08:14.296Z,98897.00
2023-03-08T13:11:04.113Z,98893.88
2023-03-08T13:13:58.055Z,98892.53
2023-03-08T13:16:35.504Z,98889.31
2023-03-08T13:19:15.870Z,98885.97
2023-03-08T13:21:53.798Z,98890.44
2023-03-08T13:24:36.225Z,98886.53
2023-03-08T13:27:35.869Z,98889.53
2023-03-08T13:30:35.465Z,98855.31
2023-03-08T13:33:12.324Z,98894.28
2023-03-08T13:35:43.654Z,98898.78
2023-03-08T13:38:22.724Z,98896.19
2023-03-08T13:40:55.786Z,98898.47
2023-03-08T13:43:30.044Z,98890.50
2023-03-08T13:46:10.671Z,98873.63
2023-03-08T13:48:44.295Z,98853.84
2023-03-08T13:51:18.872Z,98891.47
2023-03-08T13:53:50.348Z,98893.31
2023-03-08T13:56:27.766Z,98891.78
2023-03-08T13:59:00.523Z,98892.19
2023-03-08T14:01:31.950Z,98892.25
2023-03-08T14:04:11.177Z,98879.19
2023-03-08T14:06:49.213Z,98886.81
2023-03-08T14:09:21.119Z,98863.28
2023-03-08T14:11:57.474Z,98886.28
2023-03-08T14:14:33.632Z,98887.81
2023-03-08T14:17:05.175Z,98875.03
2023-03-08T14:19:40.139Z,98873.16
2023-03-08T14:22:28.697Z,98875.16
2023-03-08T14:25:22.401Z,98879.72
2023-03-08T14:27:54.225Z,98871.09
2023-03-08T14:30:28.256Z,98856.69
2023-03-08T14:33:02.681Z,98863.31
2023-03-08T14:35:39.811Z,98858.34
2023-03-08T14:38:22.622Z,98844.44
2023-03-08T14:40:54.925Z,98845.97
2023-03-08T14:43:27.307Z,98847.69
2023-03-08T14:46:07.182Z,98840.09
2023-03-08T14:48:38.586Z,98833.44
2023-03-08T14:51:19.911Z,98832.38
2023-03-08T14:54:06.498Z,98838.72
2023-03-08T14:56:37.855Z,98840.38
2023-03-08T14:59:14.016Z,98829.75
2023-03-08T15:01:53.077Z,98830.66
2023-03-08T15:04:25.628Z,98821.94
2023-03-08T15:06:57.414Z,98822.75
2023-03-08T15:09:29.963Z,98832.56
2023-03-08T15:12:01.513Z,98834.78
2023-03-08T15:14:32.845Z,98840.91
2023-03-08T15:17:04.227Z,98812.81
2023-03-08T15:19:35.747Z,98827.59
2023-03-08T15:22:07.122Z,98830.28
2023-03-08T15:24:39.361Z,98830.16
2023-03-08T15:27:15.602Z,98828.28
2023-03-08T15:29:46.839Z,98810.66
2023-03-08T15:32:18.239Z,98824.75
2023-03-08T15:34:49.809Z,98828.28
2023-03-08T15:37:21.359Z,98817.25
2023-03-08T15:39:52.659Z,98824.28
2023-03-08T15:42:24.003Z,98806.22
2023-03-08T15:44:55.278Z,98829.78
2023-03-08T15:47:27.175Z,98829.88
2023-03-08T15:49:58.507Z,98825.69
2023-03-08T15:52:31.033Z,98815.44
2023-03-08T15:55:03.820Z,98807.66
2023-03-08T15:57:37.450Z,98797.56
2023-03-08T16:00:13.947Z,98814.44
2023-03-08T16:02:45.335Z,98806.97
2023-03-08T16:05:19.528Z,98784.44
2023-03-08T16:07:59.835Z,98800.06
2023-03-08T16:10:40.262Z,98801.09
2023-03-08T16:13:11.654Z,98804.63
2023-03-08T16:15:43.069Z,98794.28
2023-03-08T16:18:14.511Z,98797.13
2023-03-08T16:20:46.352Z,98802.50
2023-03-08T16:23:17.680Z,98797.44
2023-03-08T16:26:13.544Z,98802.19
2023-03-08T16:28:46.945Z,98803.19
2023-03-08T16:31:20.830Z,98805.13
2023-03-08T16:33:52.160Z,98811.31
2023-03-08T16:36:23.436Z,98793.25
2023-03-08T16:38:56.583Z,98788.16
2023-03-08T16:41:29.932Z,98803.69
2023-03-08T16:44:01.321Z,98795.28
2023-03-08T16:46:33.532Z,98817.88
2023-03-08T16:49:04.842Z,98824.91
2023-03-08T16:51:38.499Z,98824.94
2023-03-08T16:54:13.481Z,98816.34
2023-03-08T16:56:44.836Z,98819.88
2023-03-08T16:59:17.164Z,98818.22
2023-03-08T17:01:49.828Z,98809.66
2023-03-08T17:04:22.643Z,98826.13
2023-03-08T17:06:53.977Z,98831.50
2023-03-08T17:09:25.411Z,98816.78
2023-03-08T17:11:57.787Z,98830.78
2023-03-08T17:14:29.174Z,98824.06
2023-03-08T17:17:00.542Z,98818.09
2023-03-08T17:19:32.736Z,98823.44
2023-03-08T17:22:05.196Z,98840.78
2023-03-08T17:24:36.464Z,98833.03
2023-03-08T17:27:07.793Z,98839.22
2023-03-08T17:29:39.081Z,98837.59
2023-03-08T17:32:10.391Z,98822.19
2023-03-08T17:34:41.711Z,98824.94
2023-03-08T17:37:13.022Z,98837.16
2023-03-08T17:39:44.567Z,98826.91
2023-03-08T17:42:15.953Z,98842.59
2023-03-08T17:44:47.369Z,98842.66
2023-03-08T17:47:18.752Z,98845.38
2023-03-08T17:49:50.304Z,98860.28
2023-03-08T17:52:22.681Z,98836.16
2023-03-08T17:54:56.947Z,98856.13
2023-03-08T17:57:28.233Z,98864.03
2023-03-08T17:59:59.593Z,98858.00
2023-03-08T18:02:31.249Z,98851.94
2023-03-08T18:05:02.608Z,98845.00
2023-03-08T18:07:34.066Z,98852.06
2023-03-08T18:10:06.361Z,98842.53
2023-03-08T18:12:37.736Z,98838.34
2023-03-08T18:15:09.664Z,98847.94
2023-03-08T18:17:41.388Z,98834.19
2023-03-08T18:20:12.797Z,98849.81
2023-03-08T18:22:47.020Z,98816.09
2023-03-08T18:25:19.325Z,98844.69
2023-03-08T18:27:50.711Z,98846.53
2023-03-08T18:30:22.044Z,98844.00
2023-03-08T18:32:53.328Z,98836.25
2023-03-08T18:35:24.797Z,98808.66
2023-03-08T18:37:56.093Z,98826.91
2023-03-08T18:40:29.350Z,98822.69
2023-03-08T18:43:01.017Z,98821.00
2023-03-08T18:45:32.317Z,98815.88
2023-03-08T18:48:03.587Z,98810.75
2023-03-08T18:50:34.827Z,98792.69
2023-03-08T18:53:06.108Z,98781.59
2023-03-08T18:55:37.509Z,98813.66
2023-03-08T18:58:08.809Z,98813.72
2023-03-08T19:00:40.154Z,98816.34
2023-03-08T19:03:11.429Z,98814.72
2023-03-08T19:05:43.093Z,98820.84
2023-03-08T19:08:14.589Z,98783.69
2023-03-08T19:10:46.057Z,98817.44
2023-03-08T19:13:17.435Z,98798.44
2023-03-08T19:15:48.703Z,98789.78
2023-03-08T19:18:19.984Z,98804.47
2023-03-08T19:20:51.448Z,98801.09
2023-03-08T19:23:22.752Z,98794.25
2023-03-08T19:26:12.688Z,98776.19
2023-03-08T19:28:44.035Z,98802.16
2023-03-08T19:31:17.177Z,98801.31
2023-03-08T19:33:49.716Z,98804.84
2023-03-08T19:36:21.042Z,98797.03
2023-03-08T19:38:52.519Z,98783.25
2023-03-08T19:41:24.302Z,98806.63
2023-03-08T19:43:55.587Z,98809.22
2023-03-08T19:46:26.884Z,98805.72
2023-03-08T19:48:58.208Z,98747.75
2023-03-08T19:51:29.548Z,98797.88
2023-03-08T19:54:00.960Z,98800.47
2023-03-08T19:56:33.252Z,98778.81
2023-03-08T19:59:04.612Z,98820.41
2023-03-08T20:01:36.526Z,98814.31
2023-03-08T20:04:10.077Z,98815.19
2023-03-08T20:06:46.332Z,98816.03
2023-03-08T20:09:21.344Z,98809.09
2023-03-08T20:11:57.325Z,98817.84
2023-03-08T20:14:29.711Z,98817.06
2023-03-08T20:17:01.795Z,98830.09
2023-03-08T20:19:34.058Z,98809.31
2023-03-08T20:22:05.958Z,98809.38
2023-03-08T20:24:37.225Z,98832.81
2023-03-08T20:27:11.232Z,98844.19
2023-03-08T20:29:42.509Z,98824.31
2023-03-08T20:32:14.497Z,98851.22
2023-03-08T20:34:45.854Z,98843.47
2023-03-08T20:37:17.140Z,98844.41
2023-03-08T20:39:52.378Z,98853.00
2023-03-08T20:42:23.752Z,98832.25
2023-03-08T20:44:55.156Z,98832.25
2023-03-08T20:47:26.682Z,98833.13
2023-03-08T20:49:58.253Z,98838.34
2023-03-08T20:52:29.586Z,98841.81
2023-03-08T20:55:00.855Z,98840.16
2023-03-08T20:57:32.217Z,98827.16
2023-03-08T21:00:04.998Z,98830.63
2023-03-08T21:02:36.834Z,98827.16
2023-03-08T21:05:08.473Z,98847.94
2023-03-08T21:07:40.096Z,98833.25
2023-03-08T21:10:11.373Z,98859.31
2023-03-08T21:12:42.766Z,98840.22
2023-03-08T21:15:14.057Z,98838.66
2023-03-08T21:17:45.320Z,98859.41
2023-03-08T21:20:16.807Z,98864.69
2023-03-08T21:22:48.077Z,98870.84
2023-03-08T21:25:19.397Z,98852.59
2023-03-08T21:27:50.679Z,98839.66
2023-03-08T21:30:22.332Z,98849.28
2023-03-08T21:32:53.662Z,98838.03
2023-03-08T21:35:25.017Z,98835.47
2023-03-08T21:37:56.290Z,98818.16
2023-03-08T21:40:27.583Z,98797.38
2023-03-08T21:42:58.850Z,98807.78
2023-03-08T21:45:30.245Z,98785.28
2023-03-08T21:48:01.503Z,98794.75
2023-03-08T21:50:33.486Z,98786.94
2023-03-08T21:53:04.818Z,98780.81
2023-03-08T21:55:39.996Z,98759.94
2023-03-08T21:58:11.277Z,98734.81
2023-03-08T22:00:42.571Z,98777.22
2023-03-08T22:03:13.885Z,98787.63
2023-03-08T22:05:45.308Z,98772.00
2023-03-08T22:08:16.776Z,98784.13
2023-03-08T22:10:48.610Z,98770.28
2023-03-08T22:13:20.469Z,98791.03
2023-03-08T22:15:51.805Z,98780.66
2023-03-08T22:18:23.122Z,98791.06
2023-03-08T22:20:54.990Z,98797.91
2023-03-08T22:23:27.001Z,98796.13
2023-03-08T22:25:58.315Z,98789.16
2023-03-08T22:28:29.628Z,98792.63
2023-03-08T22:31:00.935Z,98778.69
2023-03-08T22:33:32.188Z,98780.41
2023-03-08T22:36:08.489Z,98772.56
2023-03-08T22:38:40.409Z,98775.16
2023-03-08T22:41:17.272Z,98743.16
2023-03-08T22:43:49.413Z,98783.91
2023-03-08T22:46:23.454Z,98789.13
2023-03-08T22:48:57.478Z,98761.47
2023-03-08T22:51:28.839Z,98783.06
2023-03-08T22:54:04.030Z,98761.50
2023-03-08T22:56:35.450Z,98752.81
2023-03-08T22:59:06.709Z,98772.72
2023-03-08T23:01:39.114Z,98757.19
2023-03-08T23:04:12.566Z,98787.50
2023-03-08T23:06:44.218Z,98787.53
2023-03-08T23:09:16.989Z,98792.75
2023-03-08T23:11:48.665Z,98778.84
2023-03-08T23:14:19.955Z,98770.22
2023-03-08T23:16:51.558Z,98774.59
2023-03-08T23:19:22.924Z,98772.84
2023-03-08T23:21:54.208Z,98759.84
2023-03-08T23:24:25.500Z,98788.38
2023-03-08T23:27:01.658Z,98758.91
2023-03-08T23:29:33.053Z,98774.47
2023-03-08T23:32:04.711Z,98745.84
2023-03-08T23:34:36.609Z,98770.13
2023-03-08T23:37:08.056Z,98706.03
2023-03-08T23:39:39.350Z,98768.25
2023-03-08T23:42:10.607Z,98773.47
2023-03-08T23:44:41.967Z,98743.97
2023-03-08T23:47:13.281Z,98758.63
2023-03-08T23:49:44.689Z,98748.25
2023-03-08T23:52:15.954Z,98754.31
2023-03-08T23:54:47.385Z,98772.50
2023-03-08T23:57:19.020Z,98778.59
2023-03-08T23:59:50.297Z,98794.22
